createdAt,value
2018-04-22T00:00:25.680Z,14.83
2018-04-22T00:01:25.654Z,14.78
2018-04-22T00:02:25.645Z,14.71
2018-04-22T00:03:25.641Z,14.68
2018-04-22T00:04:25.620Z,14.78
2018-04-22T00:05:25.604Z,14.71
2018-04-22T00:06:25.597Z,14.67
2018-04-22T00:07:25.591Z,14.72
2018-04-22T00:08:25.567Z,14.68
2018-04-22T00:09:25.578Z,14.60
2018-04-22T00:10:25.544Z,14.61
2018-04-22T00:11:25.528Z,14.64
2018-04-22T00:12:25.515Z,14.64
2018-04-22T00:13:25.499Z,14.56
2018-04-22T00:14:25.495Z,14.56
2018-04-22T00:15:25.482Z,14.52
2018-04-22T00:16:25.467Z,14.43
2018-04-22T00:17:25.447Z,14.54
2018-04-22T00:18:25.448Z,14.54
2018-04-22T00:19:25.429Z,14.39
2018-04-22T00:20:25.420Z,14.38
2018-04-22T00:21:25.404Z,14.43
2018-04-22T00:22:25.390Z,14.54
2018-04-22T00:23:25.387Z,14.38
2018-04-22T00:24:25.362Z,14.37
2018-04-22T00:25:25.346Z,14.44
2018-04-22T00:26:25.340Z,14.38
2018-04-22T00:27:25.321Z,14.43
2018-04-22T00:28:25.307Z,14.39
2018-04-22T00:29:25.346Z,14.35
2018-04-22T00:30:25.294Z,14.34
2018-04-22T00:31:25.276Z,14.29
2018-04-22T00:32:25.257Z,14.32
2018-04-22T00:33:25.247Z,14.24
2018-04-22T00:34:25.241Z,14.39
2018-04-22T00:35:25.218Z,14.29
2018-04-22T00:36:25.209Z,14.37
2018-04-22T00:37:25.192Z,14.38
2018-04-22T00:38:25.190Z,14.28
2018-04-22T00:39:25.174Z,14.35
2018-04-22T00:40:25.157Z,14.27
2018-04-22T00:41:25.148Z,14.25
2018-04-22T00:42:25.151Z,14.20
2018-04-22T00:43:25.120Z,14.13
2018-04-22T00:44:25.107Z,14.14
2018-04-22T00:45:25.089Z,14.04
2018-04-22T00:46:25.078Z,14.10
2018-04-22T00:47:25.065Z,14.09
2018-04-22T00:48:25.059Z,14.07
2018-04-22T00:49:25.039Z,14.07
2018-04-22T00:50:25.037Z,14.07
2018-04-22T00:51:25.012Z,13.96
2018-04-22T00:52:25.009Z,14.01
2018-04-22T00:53:24.989Z,14.01
2018-04-22T00:54:24.976Z,13.96
2018-04-22T00:55:24.958Z,13.98
2018-04-22T00:56:24.945Z,14.09
2018-04-22T00:57:24.935Z,13.92
2018-04-22T00:58:24.926Z,13.99
2018-04-22T00:59:24.914Z,13.96
2018-04-22T01:00:24.900Z,13.96
2018-04-22T01:01:24.891Z,14.01
2018-04-22T01:02:24.878Z,14.04
2018-04-22T01:03:24.857Z,13.99
2018-04-22T01:04:24.839Z,13.99
2018-04-22T01:05:24.834Z,14.10
2018-04-22T01:06:24.816Z,14.02
2018-04-22T01:07:24.812Z,14.01
2018-04-22T01:08:24.797Z,13.98
2018-04-22T01:09:24.787Z,13.95
2018-04-22T01:10:24.783Z,13.94
2018-04-22T01:11:24.752Z,13.95
2018-04-22T01:12:24.738Z,13.91
2018-04-22T01:13:24.748Z,13.98
2018-04-22T01:14:24.758Z,13.96
2018-04-22T01:15:24.703Z,13.96
2018-04-22T01:16:24.694Z,13.94
2018-04-22T01:17:24.685Z,14.07
2018-04-22T01:18:24.656Z,13.92
2018-04-22T01:19:24.642Z,14.12
2018-04-22T01:20:24.633Z,13.89
2018-04-22T01:21:24.631Z,13.92
2018-04-22T01:22:24.613Z,13.99
2018-04-22T01:23:24.591Z,13.96
2018-04-22T01:24:24.579Z,13.84
2018-04-22T01:25:24.575Z,13.88
2018-04-22T01:26:24.560Z,13.80
2018-04-22T01:27:24.578Z,13.84
2018-04-22T01:28:24.537Z,13.74
2018-04-22T01:29:24.518Z,13.69
2018-04-22T01:30:24.506Z,13.56
2018-04-22T01:31:24.487Z,13.55
2018-04-22T01:32:24.474Z,13.52
2018-04-22T01:33:24.462Z,13.59
2018-04-22T01:34:24.456Z,13.52
2018-04-22T01:35:24.443Z,13.52
2018-04-22T01:36:24.426Z,13.52
2018-04-22T01:37:24.414Z,13.55
2018-04-22T01:38:24.398Z,13.47
2018-04-22T01:39:24.389Z,13.65
2018-04-22T01:40:24.372Z,13.69
2018-04-22T01:41:24.357Z,13.70
2018-04-22T01:42:24.344Z,13.74
2018-04-22T01:43:24.334Z,13.81
2018-04-22T01:44:24.322Z,13.79
2018-04-22T01:45:24.305Z,13.91
2018-04-22T01:46:24.322Z,13.87
2018-04-22T01:47:24.283Z,13.92
2018-04-22T01:48:24.268Z,13.91
2018-04-22T01:49:24.263Z,13.94
2018-04-22T01:50:24.242Z,13.94
2018-04-22T01:51:24.227Z,13.91
2018-04-22T01:52:24.218Z,13.91
2018-04-22T01:53:24.203Z,13.80
2018-04-22T01:54:24.198Z,13.69
2018-04-22T01:55:24.169Z,13.59
2018-04-22T01:56:24.156Z,13.55
2018-04-22T01:57:24.150Z,13.51
2018-04-22T01:58:24.130Z,13.52
2018-04-22T01:59:24.123Z,13.56
2018-04-22T02:00:24.104Z,13.52
2018-04-22T02:01:24.095Z,13.58
2018-04-22T02:02:24.082Z,13.56
2018-04-22T02:03:24.104Z,13.56
2018-04-22T02:04:24.047Z,13.55
2018-04-22T02:05:24.040Z,13.65
2018-04-22T02:06:24.026Z,13.58
2018-04-22T02:07:24.014Z,13.56
2018-04-22T02:08:23.995Z,13.58
2018-04-22T02:09:23.987Z,13.55
2018-04-22T02:10:23.966Z,13.58
2018-04-22T02:11:24.838Z,13.54
2018-04-22T02:12:23.946Z,13.54
2018-04-22T02:13:23.929Z,13.55
2018-04-22T02:14:23.917Z,13.55
2018-04-22T02:15:23.901Z,13.61
2018-04-22T02:16:23.894Z,13.54
2018-04-22T02:17:23.878Z,13.47
2018-04-22T02:18:23.864Z,13.49
2018-04-22T02:19:23.849Z,13.51
2018-04-22T02:20:23.837Z,13.46
2018-04-22T02:21:23.820Z,13.49
2018-04-22T02:22:23.811Z,13.51
2018-04-22T02:23:23.795Z,13.49
2018-04-22T02:24:23.785Z,13.49
2018-04-22T02:25:23.778Z,13.43
2018-04-22T02:26:23.753Z,13.44
2018-04-22T02:27:23.747Z,13.40
2018-04-22T02:28:23.734Z,13.47
2018-04-22T02:29:23.711Z,13.43
2018-04-22T02:30:23.699Z,13.36
2018-04-22T02:31:23.692Z,13.43
2018-04-22T02:32:23.673Z,13.37
2018-04-22T02:33:23.679Z,13.22
2018-04-22T02:34:23.666Z,13.22
2018-04-22T02:35:23.634Z,13.25
2018-04-22T02:36:23.612Z,13.29
2018-04-22T02:37:23.598Z,13.25
2018-04-22T02:38:23.592Z,13.24
2018-04-22T02:39:23.578Z,13.27
2018-04-22T02:40:23.556Z,13.25
2018-04-22T02:41:23.552Z,13.15
2018-04-22T02:42:23.540Z,13.17
2018-04-22T02:43:23.521Z,13.22
2018-04-22T02:44:23.498Z,13.18
2018-04-22T02:45:23.492Z,13.18
2018-04-22T02:46:23.469Z,13.14
2018-04-22T02:47:23.469Z,13.24
2018-04-22T02:48:23.453Z,13.25
2018-04-22T02:49:23.460Z,13.33
2018-04-22T02:50:23.423Z,13.32
2018-04-22T02:51:23.415Z,13.29
2018-04-22T02:52:23.395Z,13.22
2018-04-22T02:53:23.383Z,13.15
2018-04-22T02:54:23.372Z,13.20
2018-04-22T02:55:23.359Z,13.22
2018-04-22T02:56:23.338Z,13.12
2018-04-22T02:57:23.329Z,13.20
2018-04-22T02:58:23.314Z,13.24
2018-04-22T02:59:23.290Z,13.25
2018-04-22T03:00:23.292Z,13.29
2018-04-22T03:01:23.272Z,13.07
2018-04-22T03:02:23.256Z,13.22
2018-04-22T03:03:23.252Z,13.17
2018-04-22T03:04:23.227Z,13.24
2018-04-22T03:05:23.212Z,13.04
2018-04-22T03:06:23.203Z,13.11
2018-04-22T03:07:23.190Z,13.06
2018-04-22T03:08:23.193Z,13.24
2018-04-22T03:09:23.160Z,13.22
2018-04-22T03:10:23.151Z,13.18
2018-04-22T03:11:23.129Z,13.22
2018-04-22T03:12:23.117Z,13.33
2018-04-22T03:13:23.113Z,13.24
2018-04-22T03:14:23.097Z,13.18
2018-04-22T03:15:23.078Z,13.21
2018-04-22T03:16:23.058Z,13.09
2018-04-22T03:17:23.039Z,13.07
2018-04-22T03:18:23.051Z,13.03
2018-04-22T03:19:23.014Z,13.04
2018-04-22T03:20:23.002Z,13.09
2018-04-22T03:21:22.990Z,13.04
2018-04-22T03:22:22.969Z,13.18
2018-04-22T03:23:22.975Z,13.14
2018-04-22T03:24:22.947Z,13.07
2018-04-22T03:25:22.934Z,13.04
2018-04-22T03:26:22.912Z,12.96
2018-04-22T03:27:22.905Z,12.88
2018-04-22T03:28:22.883Z,13.00
2018-04-22T03:29:22.873Z,12.96
2018-04-22T03:30:22.863Z,13.04
2018-04-22T03:31:22.844Z,12.97
2018-04-22T03:32:22.833Z,12.95
2018-04-22T03:33:22.819Z,12.84
2018-04-22T03:34:22.807Z,13.02
2018-04-22T03:35:22.797Z,12.88
2018-04-22T03:36:22.774Z,12.88
2018-04-22T03:37:22.771Z,13.02
2018-04-22T03:38:22.746Z,12.96
2018-04-22T03:39:22.736Z,13.02
2018-04-22T03:40:22.718Z,12.89
2018-04-22T03:41:22.725Z,12.96
2018-04-22T03:42:22.699Z,12.84
2018-04-22T03:43:22.692Z,12.84
2018-04-22T03:44:22.663Z,12.89
2018-04-22T03:45:22.651Z,12.84
2018-04-22T03:46:22.642Z,12.82
2018-04-22T03:47:22.632Z,12.95
2018-04-22T03:48:22.610Z,12.95
2018-04-22T03:49:22.595Z,12.82
2018-04-22T03:50:22.585Z,12.97
2018-04-22T03:51:22.572Z,12.92
2018-04-22T03:52:22.559Z,12.99
2018-04-22T03:53:22.543Z,12.87
2018-04-22T03:54:22.527Z,12.85
2018-04-22T03:55:22.512Z,12.85
2018-04-22T03:56:22.492Z,12.85
2018-04-22T03:57:22.486Z,12.95
2018-04-22T03:58:22.476Z,12.84
2018-04-22T03:59:22.460Z,12.89
2018-04-22T04:00:22.450Z,12.85
2018-04-22T04:01:22.454Z,12.99
2018-04-22T04:02:22.428Z,12.96
2018-04-22T04:03:22.410Z,12.81
2018-04-22T04:04:22.388Z,12.87
2018-04-22T04:05:22.369Z,12.81
2018-04-22T04:06:22.365Z,12.95
2018-04-22T04:07:22.346Z,12.96
2018-04-22T04:08:22.327Z,12.85
2018-04-22T04:09:22.327Z,12.85
2018-04-22T04:10:22.298Z,12.88
2018-04-22T04:11:22.292Z,12.87
2018-04-22T04:12:22.276Z,12.78
2018-04-22T04:13:22.264Z,12.75
2018-04-22T04:14:22.246Z,12.77
2018-04-22T04:15:22.238Z,12.70
2018-04-22T04:16:22.222Z,12.81
2018-04-22T04:17:22.206Z,12.79
2018-04-22T04:18:22.190Z,12.87
2018-04-22T04:19:22.196Z,12.85
2018-04-22T04:20:22.168Z,12.85
2018-04-22T04:21:22.145Z,12.85
2018-04-22T04:22:22.133Z,12.85
2018-04-22T04:23:22.145Z,12.82
2018-04-22T04:24:22.110Z,12.78
2018-04-22T04:25:22.094Z,12.75
2018-04-22T04:26:22.088Z,12.71
2018-04-22T04:27:22.061Z,12.69
2018-04-22T04:28:22.039Z,12.75
2018-04-22T04:29:22.033Z,12.71
2018-04-22T04:30:22.019Z,12.71
2018-04-22T04:31:22.016Z,12.74
2018-04-22T04:32:22.010Z,12.71
2018-04-22T04:33:21.974Z,12.82
2018-04-22T04:34:21.959Z,12.82
2018-04-22T04:35:21.962Z,12.82
2018-04-22T04:36:21.933Z,13.02
2018-04-22T04:37:21.927Z,12.88
2018-04-22T04:38:21.911Z,12.85
2018-04-22T04:39:21.888Z,12.82
2018-04-22T04:40:21.872Z,13.00
2018-04-22T04:41:21.863Z,12.89
2018-04-22T04:42:21.844Z,12.95
2018-04-22T04:43:21.883Z,13.04
2018-04-22T04:44:21.820Z,13.00
2018-04-22T04:45:21.814Z,12.97
2018-04-22T04:46:21.800Z,12.93
2018-04-22T04:47:21.777Z,12.87
2018-04-22T04:48:21.765Z,13.03
2018-04-22T04:49:21.750Z,12.95
2018-04-22T04:50:21.733Z,12.99
2018-04-22T04:51:21.717Z,12.87
2018-04-22T04:52:21.702Z,12.84
2018-04-22T04:53:21.690Z,12.88
2018-04-22T04:54:21.692Z,12.79
2018-04-22T04:55:21.665Z,12.81
2018-04-22T04:56:21.647Z,12.82
2018-04-22T04:57:21.634Z,12.85
2018-04-22T04:58:21.620Z,12.82
2018-04-22T04:59:21.601Z,12.88
2018-04-22T05:00:21.607Z,12.82
2018-04-22T05:01:21.585Z,12.85
2018-04-22T05:02:21.565Z,12.81
2018-04-22T05:03:21.552Z,12.81
2018-04-22T05:04:21.536Z,12.97
2018-04-22T05:05:21.520Z,12.95
2018-04-22T05:06:21.511Z,12.81
2018-04-22T05:07:21.498Z,12.96
2018-04-22T05:08:21.483Z,13.00
2018-04-22T05:09:21.470Z,12.96
2018-04-22T05:10:21.450Z,12.95
2018-04-22T05:11:21.442Z,12.97
2018-04-22T05:12:21.421Z,12.97
2018-04-22T05:13:21.415Z,12.95
2018-04-22T05:14:21.404Z,12.89
2018-04-22T05:15:21.386Z,12.88
2018-04-22T05:16:21.369Z,12.97
2018-04-22T05:17:21.357Z,12.95
2018-04-22T05:18:21.351Z,13.00
2018-04-22T05:19:21.331Z,13.00
2018-04-22T05:20:21.315Z,13.03
2018-04-22T05:21:21.303Z,13.07
2018-04-22T05:22:21.283Z,13.15
2018-04-22T05:23:21.271Z,13.17
2018-04-22T05:24:21.269Z,13.22
2018-04-22T05:25:21.280Z,13.27
2018-04-22T05:26:21.232Z,13.21
2018-04-22T05:27:21.219Z,13.27
2018-04-22T05:28:21.230Z,13.22
2018-04-22T05:29:21.194Z,13.27
2018-04-22T05:30:21.175Z,13.30
2018-04-22T05:31:21.159Z,13.37
2018-04-22T05:32:21.149Z,13.36
2018-04-22T05:33:21.150Z,13.33
2018-04-22T05:34:21.133Z,13.41
2018-04-22T05:35:21.108Z,13.36
2018-04-22T05:36:21.093Z,13.37
2018-04-22T05:37:21.079Z,13.33
2018-04-22T05:38:21.072Z,13.37
2018-04-22T05:39:21.047Z,13.44
2018-04-22T05:40:21.064Z,13.49
2018-04-22T05:41:21.040Z,13.51
2018-04-22T05:42:21.025Z,13.58
2018-04-22T05:43:20.995Z,13.69
2018-04-22T05:44:20.979Z,13.74
2018-04-22T05:45:20.970Z,13.83
2018-04-22T05:46:20.953Z,13.79
2018-04-22T05:47:20.942Z,13.83
2018-04-22T05:48:20.926Z,13.94
2018-04-22T05:49:20.913Z,13.92
2018-04-22T05:50:20.907Z,14.02
2018-04-22T05:51:20.888Z,14.07
2018-04-22T05:52:20.871Z,14.10
2018-04-22T05:53:20.861Z,14.25
2018-04-22T05:54:20.852Z,14.24
2018-04-22T05:55:20.828Z,14.42
2018-04-22T05:56:20.823Z,14.46
2018-04-22T05:57:20.805Z,14.39
2018-04-22T05:58:20.785Z,14.46
2018-04-22T05:59:20.773Z,14.39
2018-04-22T06:00:20.771Z,14.37
2018-04-22T06:01:20.744Z,14.56
2018-04-22T06:02:20.750Z,14.60
2018-04-22T06:03:20.736Z,14.64
2018-04-22T06:04:20.714Z,14.69
2018-04-22T06:05:20.702Z,14.74
2018-04-22T06:06:20.687Z,14.80
2018-04-22T06:07:20.675Z,14.84
2018-04-22T06:08:20.658Z,14.87
2018-04-22T06:09:20.654Z,14.94
2018-04-22T06:10:20.632Z,15.06
2018-04-22T06:11:20.628Z,15.30
2018-04-22T06:12:20.617Z,15.48
2018-04-22T06:13:20.604Z,15.68
2018-04-22T06:14:20.604Z,15.94
2018-04-22T06:15:20.575Z,16.09
2018-04-22T06:16:20.568Z,16.25
2018-04-22T06:17:20.597Z,16.40
2018-04-22T06:18:20.538Z,16.41
2018-04-22T06:19:20.523Z,16.50
2018-04-22T06:20:20.512Z,16.71
2018-04-22T06:21:20.495Z,16.89
2018-04-22T06:22:20.489Z,16.92
2018-04-22T06:23:20.479Z,17.07
2018-04-22T06:24:20.472Z,17.04
2018-04-22T06:25:20.469Z,17.08
2018-04-22T06:26:20.435Z,17.13
2018-04-22T06:27:20.428Z,17.11
2018-04-22T06:28:20.448Z,17.15
2018-04-22T06:29:20.403Z,17.08
2018-04-22T06:30:20.394Z,17.08
2018-04-22T06:31:20.409Z,17.14
2018-04-22T06:32:20.367Z,17.17
2018-04-22T06:33:20.371Z,17.15
2018-04-22T06:34:20.355Z,17.30
2018-04-22T06:35:20.339Z,17.25
2018-04-22T06:36:20.329Z,17.40
2018-04-22T06:37:20.307Z,17.44
2018-04-22T06:38:20.304Z,17.53
2018-04-22T06:39:20.295Z,17.62
2018-04-22T06:40:20.331Z,17.57
2018-04-22T06:41:20.266Z,17.63
2018-04-22T06:42:20.262Z,17.74
2018-04-22T06:43:20.258Z,17.78
2018-04-22T06:44:20.240Z,17.88
2018-04-22T06:45:20.231Z,17.85
2018-04-22T06:46:20.218Z,17.94
2018-04-22T06:47:20.221Z,17.94
2018-04-22T06:48:20.195Z,17.99
2018-04-22T06:49:20.186Z,18.00
2018-04-22T06:50:20.170Z,18.03
2018-04-22T06:51:20.163Z,18.03
2018-04-22T06:52:20.148Z,18.17
2018-04-22T06:53:20.188Z,18.24
2018-04-22T06:54:20.131Z,18.33
2018-04-22T06:55:20.118Z,18.37
2018-04-22T06:56:20.099Z,18.37
2018-04-22T06:57:20.097Z,18.39
2018-04-22T06:58:20.080Z,18.39
2018-04-22T06:59:20.074Z,18.44
2018-04-22T07:00:20.067Z,18.42
2018-04-22T07:01:20.056Z,18.42
2018-04-22T07:02:20.043Z,18.58
2018-04-22T07:03:20.035Z,18.62
2018-04-22T07:04:20.018Z,18.70
2018-04-22T07:05:20.006Z,18.70
2018-04-22T07:06:20.075Z,18.72
2018-04-22T07:07:19.996Z,18.80
2018-04-22T07:08:19.979Z,18.82
2018-04-22T07:09:19.993Z,18.76
2018-04-22T07:10:19.960Z,18.80
2018-04-22T07:11:19.950Z,18.87
2018-04-22T07:12:19.937Z,18.79
2018-04-22T07:13:19.935Z,18.80
2018-04-22T07:14:19.915Z,18.76
2018-04-22T07:15:19.903Z,18.74
2018-04-22T07:16:19.890Z,18.70
2018-04-22T07:17:19.894Z,18.84
2018-04-22T07:18:19.881Z,18.95
2018-04-22T07:19:19.864Z,19.10
2018-04-22T07:20:19.866Z,19.20
2018-04-22T07:21:19.839Z,19.15
2018-04-22T07:22:19.832Z,19.18
2018-04-22T07:23:19.829Z,19.17
2018-04-22T07:24:19.817Z,19.33
2018-04-22T07:25:19.801Z,19.25
2018-04-22T07:26:19.806Z,19.40
2018-04-22T07:27:19.785Z,19.33
2018-04-22T07:28:19.771Z,19.32
2018-04-22T07:29:19.781Z,19.35
2018-04-22T07:30:19.771Z,19.43
2018-04-22T07:31:19.744Z,19.51
2018-04-22T07:32:19.737Z,19.63
2018-04-22T07:33:19.725Z,19.51
2018-04-22T07:34:19.727Z,19.57
2018-04-22T07:35:19.702Z,19.61
2018-04-22T07:36:19.698Z,19.58
2018-04-22T07:37:19.686Z,19.68
2018-04-22T07:38:19.679Z,19.76
2018-04-22T07:39:19.679Z,19.90
2018-04-22T07:40:19.653Z,19.98
2018-04-22T07:41:19.678Z,20.00
2018-04-22T07:42:19.669Z,20.10
2018-04-22T07:43:19.630Z,20.28
2018-04-22T07:44:19.623Z,20.27
2018-04-22T07:45:19.607Z,20.31
2018-04-22T07:46:19.604Z,20.39
2018-04-22T07:47:19.634Z,20.50
2018-04-22T07:48:19.612Z,20.49
2018-04-22T07:49:19.565Z,20.49
2018-04-22T07:50:19.563Z,20.50
2018-04-22T07:51:19.579Z,20.39
2018-04-22T07:52:19.543Z,20.34
2018-04-22T07:53:19.565Z,20.24
2018-04-22T07:54:19.550Z,20.06
2018-04-22T07:55:19.543Z,19.98
2018-04-22T07:56:19.524Z,20.00
2018-04-22T07:57:19.517Z,19.91
2018-04-22T07:58:19.505Z,19.93
2018-04-22T07:59:19.482Z,20.00
2018-04-22T08:00:19.485Z,20.08
2018-04-22T08:01:19.473Z,20.06
2018-04-22T08:02:19.517Z,20.06
2018-04-22T08:03:19.527Z,19.98
2018-04-22T08:04:19.453Z,19.98
2018-04-22T08:05:19.708Z,20.05
2018-04-22T08:06:20.992Z,20.03
2018-04-22T08:07:20.531Z,19.98
2018-04-22T08:08:19.486Z,20.02
2018-04-22T08:09:19.438Z,20.06
2018-04-22T08:10:19.710Z,20.05
2018-04-22T08:11:19.414Z,20.05
2018-04-22T08:12:19.381Z,20.13
2018-04-22T08:13:19.368Z,20.16
2018-04-22T08:14:19.391Z,20.27
2018-04-22T08:15:19.641Z,20.30
2018-04-22T08:16:19.363Z,20.43
2018-04-22T08:17:19.341Z,20.47
2018-04-22T08:18:19.362Z,20.38
2018-04-22T08:19:19.343Z,20.43
2018-04-22T08:20:19.522Z,20.41
2018-04-22T08:21:19.647Z,20.54
2018-04-22T08:22:19.300Z,20.69
2018-04-22T08:23:19.289Z,20.76
2018-04-22T08:24:19.286Z,20.81
2018-04-22T08:25:19.302Z,20.91
2018-04-22T08:26:19.302Z,21.02
2018-04-22T08:27:19.322Z,21.08
2018-04-22T08:28:19.296Z,21.20
2018-04-22T08:29:19.241Z,21.24
2018-04-22T08:30:19.239Z,21.21
2018-04-22T08:31:19.251Z,21.26
2018-04-22T08:32:19.212Z,21.23
2018-04-22T08:33:19.217Z,21.26
2018-04-22T08:34:19.205Z,21.38
2018-04-22T08:35:19.199Z,21.42
2018-04-22T08:36:19.180Z,21.53
2018-04-22T08:37:19.189Z,21.66
2018-04-22T08:38:19.174Z,21.94
2018-04-22T08:39:19.170Z,22.23
2018-04-22T08:40:19.148Z,22.39
2018-04-22T08:41:19.154Z,22.59
2018-04-22T08:42:19.167Z,23.01
2018-04-22T08:43:19.141Z,23.49
2018-04-22T08:44:19.132Z,23.75
2018-04-22T08:45:19.161Z,23.94
2018-04-22T08:46:19.135Z,23.68
2018-04-22T08:47:19.126Z,23.67
2018-04-22T08:48:19.144Z,23.50
2018-04-22T08:49:19.138Z,23.57
2018-04-22T08:50:19.094Z,23.47
2018-04-22T08:51:19.094Z,23.46
2018-04-22T08:52:19.097Z,23.71
2018-04-22T08:53:19.145Z,23.98
2018-04-22T08:54:19.090Z,24.12
2018-04-22T08:55:19.078Z,24.39
2018-04-22T08:56:19.075Z,24.80
2018-04-22T08:57:19.087Z,25.15
2018-04-22T08:58:19.085Z,25.30
2018-04-22T08:59:19.094Z,25.44
2018-04-22T09:00:19.093Z,25.72
2018-04-22T09:01:19.061Z,26.05
2018-04-22T09:02:19.065Z,26.35
2018-04-22T09:03:19.080Z,26.39
2018-04-22T09:04:19.069Z,26.92
2018-04-22T09:05:19.071Z,27.23
2018-04-22T09:06:19.068Z,27.42
2018-04-22T09:07:19.065Z,27.70
2018-04-22T09:08:19.058Z,27.54
2018-04-22T09:09:19.076Z,27.33
2018-04-22T09:10:19.071Z,27.13
2018-04-22T09:11:19.072Z,27.29
2018-04-22T09:12:19.071Z,26.67
2018-04-22T09:13:19.065Z,26.52
2018-04-22T09:14:19.076Z,26.83
2018-04-22T09:15:19.078Z,27.36
2018-04-22T09:16:19.079Z,27.59
2018-04-22T09:17:19.077Z,27.73
2018-04-22T09:18:19.078Z,27.91
2018-04-22T09:19:19.090Z,28.10
2018-04-22T09:20:19.094Z,28.35
2018-04-22T09:21:19.090Z,28.36
2018-04-22T09:22:19.108Z,28.04
2018-04-22T09:23:19.095Z,28.04
2018-04-22T09:24:19.096Z,28.06
2018-04-22T09:25:19.096Z,28.03
2018-04-22T09:26:19.103Z,28.13
2018-04-22T09:27:19.109Z,28.31
2018-04-22T09:28:19.109Z,28.68
2018-04-22T09:29:19.116Z,28.63
2018-04-22T09:30:19.148Z,28.53
2018-04-22T09:31:19.135Z,28.82
2018-04-22T09:32:19.128Z,28.96
2018-04-22T09:33:19.141Z,28.85
2018-04-22T09:34:19.142Z,28.65
2018-04-22T09:35:19.138Z,28.41
2018-04-22T09:36:19.138Z,28.31
2018-04-22T09:37:19.134Z,28.66
2018-04-22T09:38:19.134Z,28.65
2018-04-22T09:39:19.167Z,28.63
2018-04-22T09:40:19.163Z,29.03
2018-04-22T09:41:19.150Z,29.28
2018-04-22T09:42:19.158Z,29.35
2018-04-22T09:43:19.157Z,29.38
2018-04-22T09:44:19.171Z,29.78
2018-04-22T09:45:19.167Z,30.21
2018-04-22T09:46:19.170Z,29.23
2018-04-22T09:47:19.170Z,28.91
2018-04-22T09:48:19.183Z,28.90
2018-04-22T09:49:19.182Z,28.87
2018-04-22T09:50:19.182Z,28.85
2018-04-22T09:51:19.186Z,28.91
2018-04-22T09:52:19.187Z,28.75
2018-04-22T09:53:19.233Z,28.72
2018-04-22T09:54:19.236Z,28.68
2018-04-22T09:55:19.202Z,28.84
2018-04-22T09:56:19.203Z,29.11
2018-04-22T09:57:19.205Z,29.10
2018-04-22T09:58:19.215Z,29.01
2018-04-22T09:59:19.218Z,28.93
2018-04-22T10:00:19.219Z,29.08
2018-04-22T10:01:19.221Z,28.91
2018-04-22T10:02:19.235Z,29.43
2018-04-22T10:03:19.239Z,29.84
2018-04-22T10:04:19.238Z,29.60
2018-04-22T10:05:19.264Z,29.55
2018-04-22T10:06:19.248Z,29.37
2018-04-22T10:07:19.250Z,29.31
2018-04-22T10:08:19.251Z,28.93
2018-04-22T10:09:19.254Z,29.07
2018-04-22T10:10:19.254Z,28.97
2018-04-22T10:11:19.265Z,28.90
2018-04-22T10:12:19.257Z,28.78
2018-04-22T10:13:19.276Z,28.91
2018-04-22T10:14:19.269Z,29.43
2018-04-22T10:15:19.267Z,29.57
2018-04-22T10:16:19.284Z,29.65
2018-04-22T10:17:19.273Z,29.77
2018-04-22T10:18:19.274Z,29.90
2018-04-22T10:19:19.286Z,29.65
2018-04-22T10:20:19.288Z,29.92
2018-04-22T10:21:19.277Z,29.97
2018-04-22T10:22:19.286Z,30.19
2018-04-22T10:23:19.299Z,30.33
2018-04-22T10:24:19.289Z,30.31
2018-04-22T10:25:19.317Z,30.24
2018-04-22T10:26:19.299Z,30.12
2018-04-22T10:27:19.312Z,30.37
2018-04-22T10:28:19.309Z,30.84
2018-04-22T10:29:19.325Z,30.93
2018-04-22T10:30:19.321Z,31.13
2018-04-22T10:31:19.343Z,31.01
2018-04-22T10:32:19.328Z,31.21
2018-04-22T10:33:19.341Z,31.57
2018-04-22T10:34:19.334Z,31.54
2018-04-22T10:35:19.351Z,31.24
2018-04-22T10:36:19.351Z,31.08
2018-04-22T10:37:19.366Z,31.20
2018-04-22T10:38:19.357Z,31.49
2018-04-22T10:39:19.383Z,31.45
2018-04-22T10:40:19.376Z,31.55
2018-04-22T10:41:19.375Z,31.65
2018-04-22T10:42:19.376Z,31.73
2018-04-22T10:43:19.388Z,31.79
2018-04-22T10:44:19.387Z,31.98
2018-04-22T10:45:19.398Z,32.05
2018-04-22T10:46:19.408Z,32.13
2018-04-22T10:47:19.438Z,31.61
2018-04-22T10:48:19.420Z,31.24
2018-04-22T10:49:19.429Z,31.40
2018-04-22T10:50:19.430Z,31.62
2018-04-22T10:51:19.482Z,32.00
2018-04-22T10:52:19.448Z,32.35
2018-04-22T10:53:19.477Z,32.61
2018-04-22T10:54:19.461Z,32.85
2018-04-22T10:55:19.468Z,33.27
2018-04-22T10:56:19.484Z,32.86
2018-04-22T10:57:19.508Z,32.52
2018-04-22T10:58:19.486Z,32.24
2018-04-22T10:59:19.500Z,32.64
2018-04-22T11:00:19.509Z,33.04
2018-04-22T11:01:19.531Z,33.39
2018-04-22T11:02:19.525Z,33.58
2018-04-22T11:03:19.531Z,33.53
2018-04-22T11:04:19.554Z,33.39
2018-04-22T11:05:19.544Z,33.26
2018-04-22T11:06:19.553Z,33.07
2018-04-22T11:07:19.599Z,33.17
2018-04-22T11:08:19.582Z,33.37
2018-04-22T11:09:19.566Z,33.45
2018-04-22T11:10:19.583Z,33.46
2018-04-22T11:11:19.592Z,33.74
2018-04-22T11:12:19.609Z,33.46
2018-04-22T11:13:19.614Z,33.42
2018-04-22T11:14:19.677Z,33.85
2018-04-22T11:15:19.632Z,34.07
2018-04-22T11:16:19.638Z,33.89
2018-04-22T11:17:19.651Z,33.98
2018-04-22T11:18:19.658Z,33.74
2018-04-22T11:19:19.683Z,33.52
2018-04-22T11:20:19.670Z,33.86
2018-04-22T11:21:19.680Z,33.98
2018-04-22T11:22:19.690Z,34.31
2018-04-22T11:23:19.701Z,34.57
2018-04-22T11:24:19.735Z,34.22
2018-04-22T11:25:19.712Z,33.79
2018-04-22T11:26:19.743Z,33.37
2018-04-22T11:27:19.760Z,32.57
2018-04-22T11:28:19.737Z,32.52
2018-04-22T11:29:19.763Z,32.24
2018-04-22T11:30:19.766Z,32.27
2018-04-22T11:31:19.772Z,32.22
2018-04-22T11:32:19.779Z,32.52
2018-04-22T11:33:19.795Z,33.01
2018-04-22T11:34:19.799Z,33.46
2018-04-22T11:35:19.810Z,33.82
2018-04-22T11:36:19.808Z,34.02
2018-04-22T11:37:19.828Z,33.95
2018-04-22T11:38:19.832Z,33.79
2018-04-22T11:39:19.846Z,33.42
2018-04-22T11:40:19.849Z,33.15
2018-04-22T11:41:19.864Z,33.43
2018-04-22T11:42:19.865Z,33.42
2018-04-22T11:43:19.883Z,33.39
2018-04-22T11:44:19.894Z,33.29
2018-04-22T11:45:19.894Z,33.26
2018-04-22T11:46:19.913Z,33.49
2018-04-22T11:47:19.912Z,33.49
2018-04-22T11:48:19.919Z,33.76
2018-04-22T11:49:19.944Z,33.68
2018-04-22T11:50:19.942Z,33.53
2018-04-22T11:51:19.948Z,33.67
2018-04-22T11:52:19.948Z,33.67
2018-04-22T11:53:19.965Z,33.90
2018-04-22T11:54:19.980Z,33.58
2018-04-22T11:55:19.993Z,33.53
2018-04-22T11:56:20.003Z,33.30
2018-04-22T11:57:20.025Z,33.36
2018-04-22T11:58:20.009Z,33.37
2018-04-22T11:59:20.025Z,33.37
2018-04-22T12:00:20.040Z,33.34
2018-04-22T12:01:20.040Z,32.99
2018-04-22T12:02:20.081Z,32.74
2018-04-22T12:03:20.059Z,32.74
2018-04-22T12:04:20.081Z,32.84
2018-04-22T12:05:20.075Z,33.01
2018-04-22T12:06:20.088Z,32.98
2018-04-22T12:07:20.107Z,32.98
2018-04-22T12:08:20.102Z,33.03
2018-04-22T12:09:20.105Z,33.04
2018-04-22T12:10:20.139Z,33.13
2018-04-22T12:11:20.132Z,33.27
2018-04-22T12:12:20.138Z,33.30
2018-04-22T12:13:20.142Z,33.27
2018-04-22T12:14:20.161Z,33.13
2018-04-22T12:15:20.186Z,33.31
2018-04-22T12:16:20.180Z,33.41
2018-04-22T12:17:20.190Z,33.58
2018-04-22T12:18:20.209Z,33.58
2018-04-22T12:19:20.219Z,33.41
2018-04-22T12:20:20.212Z,32.98
2018-04-22T12:21:20.223Z,32.77
2018-04-22T12:22:20.223Z,32.88
2018-04-22T12:23:20.234Z,33.13
2018-04-22T12:24:20.244Z,33.30
2018-04-22T12:25:20.245Z,33.30
2018-04-22T12:26:20.274Z,33.55
2018-04-22T12:27:20.271Z,33.14
2018-04-22T12:28:20.273Z,33.17
2018-04-22T12:29:20.280Z,33.19
2018-04-22T12:30:20.298Z,33.01
2018-04-22T12:31:20.302Z,33.06
2018-04-22T12:32:20.305Z,33.26
2018-04-22T12:33:20.334Z,32.99
2018-04-22T12:34:20.322Z,32.84
2018-04-22T12:35:20.331Z,32.81
2018-04-22T12:36:20.337Z,32.76
2018-04-22T12:37:20.351Z,32.79
2018-04-22T12:38:20.354Z,32.77
2018-04-22T12:39:20.376Z,32.81
2018-04-22T12:40:20.385Z,32.52
2018-04-22T12:41:20.392Z,32.35
2018-04-22T12:42:20.401Z,32.33
2018-04-22T12:43:20.395Z,32.49
2018-04-22T12:44:20.409Z,32.55
2018-04-22T12:45:20.427Z,32.43
2018-04-22T12:46:20.420Z,32.69
2018-04-22T12:47:20.427Z,32.80
2018-04-22T12:48:20.436Z,32.69
2018-04-22T12:49:20.454Z,32.80
2018-04-22T12:50:20.480Z,32.80
2018-04-22T12:51:20.462Z,32.66
2018-04-22T12:52:20.466Z,32.17